createdAt,value
2023-03-30T00:01:43.450Z,54.92
2023-03-30T00:04:46.605Z,54.99
2023-03-30T00:07:51.016Z,55.16
2023-03-30T00:11:00.808Z,55.49
2023-03-30T00:14:04.051Z,55.41
2023-03-30T00:17:08.579Z,55.61
2023-03-30T00:20:17.291Z,55.78
2023-03-30T00:23:20.696Z,55.84
2023-03-30T00:26:23.763Z,56.06
2023-03-30T00:29:26.952Z,56.19
2023-03-30T00:32:30.123Z,56.23
2023-03-30T00:35:33.439Z,56.40
2023-03-30T00:38:36.622Z,56.54
2023-03-30T00:41:40.315Z,56.65
2023-03-30T00:45:01.464Z,56.78
2023-03-30T00:48:04.688Z,57.00
2023-03-30T00:51:10.606Z,56.96
2023-03-30T00:54:18.977Z,56.95
2023-03-30T00:57:25.085Z,57.11
2023-03-30T01:00:28.532Z,57.25
2023-03-30T01:03:46.650Z,57.48
2023-03-30T01:06:52.209Z,57.65
2023-03-30T01:09:55.527Z,57.56
2023-03-30T01:12:59.052Z,57.77
2023-03-30T01:16:21.223Z,57.89
2023-03-30T01:19:53.547Z,57.88
2023-03-30T01:23:18.813Z,57.99
2023-03-30T01:26:43.073Z,58.00
2023-03-30T01:30:26.829Z,58.00
2023-03-30T01:33:47.448Z,58.15
2023-03-30T01:37:15.241Z,58.33
2023-03-30T01:40:44.054Z,58.30
2023-03-30T01:43:54.211Z,58.45
2023-03-30T01:47:07.270Z,58.55
2023-03-30T01:50:21.058Z,58.39
2023-03-30T01:53:53.299Z,58.66
2023-03-30T01:57:20.089Z,58.70
2023-03-30T02:00:25.400Z,58.76
2023-03-30T02:03:32.673Z,58.75
2023-03-30T02:06:44.279Z,58.75
2023-03-30T02:09:52.024Z,58.90
2023-03-30T02:12:58.795Z,58.81
2023-03-30T02:16:13.797Z,58.92
2023-03-30T02:19:20.715Z,58.91
2023-03-30T02:22:26.551Z,59.02
2023-03-30T02:25:29.688Z,59.12
2023-03-30T02:28:32.784Z,59.25
2023-03-30T02:31:37.145Z,59.21
2023-03-30T02:35:08.971Z,59.21
2023-03-30T02:38:36.582Z,59.14
2023-03-30T02:42:01.194Z,59.07
2023-03-30T02:45:13.507Z,59.04
2023-03-30T02:48:22.043Z,59.11
2023-03-30T02:51:34.675Z,58.77
2023-03-30T02:55:51.142Z,58.88
2023-03-30T02:59:04.639Z,58.90
2023-03-30T03:02:20.237Z,59.05
2023-03-30T03:05:27.030Z,59.15
2023-03-30T03:08:42.036Z,59.18
2023-03-30T03:11:46.781Z,59.21
2023-03-30T03:14:50.001Z,59.29
2023-03-30T03:17:53.251Z,59.26
2023-03-30T03:20:57.404Z,59.30
2023-03-30T03:24:00.625Z,59.35
2023-03-30T03:27:15.559Z,59.38
2023-03-30T03:30:51.041Z,59.30
2023-03-30T03:33:57.164Z,59.28
2023-03-30T03:37:11.958Z,59.30
2023-03-30T03:40:15.687Z,59.37
2023-03-30T03:43:19.428Z,59.33
2023-03-30T03:46:22.571Z,59.35
2023-03-30T03:49:25.743Z,59.36
2023-03-30T03:52:28.925Z,59.36
2023-03-30T03:55:34.872Z,59.27
2023-03-30T03:58:38.422Z,59.20
2023-03-30T04:01:43.127Z,59.14
2023-03-30T04:04:46.565Z,59.10
2023-03-30T04:07:50.156Z,59.08
2023-03-30T04:10:53.274Z,59.06
2023-03-30T04:14:16.749Z,59.05
2023-03-30T04:17:28.710Z,59.07
2023-03-30T04:20:54.797Z,59.01
2023-03-30T04:24:14.169Z,59.00
2023-03-30T04:27:56.879Z,59.03
2023-03-30T04:31:22.808Z,59.02
2023-03-30T04:34:58.117Z,59.04
2023-03-30T04:38:02.298Z,59.12
2023-03-30T04:41:34.277Z,59.08
2023-03-30T04:44:49.258Z,59.08
2023-03-30T04:48:21.981Z,59.12
2023-03-30T04:51:47.674Z,59.25
2023-03-30T04:55:10.135Z,59.23
2023-03-30T04:58:37.682Z,59.16
2023-03-30T05:02:07.298Z,59.12
2023-03-30T05:05:22.431Z,59.15
2023-03-30T05:08:26.036Z,59.24
2023-03-30T05:11:58.561Z,59.26
2023-03-30T05:15:16.573Z,59.07
2023-03-30T05:18:25.677Z,59.18
2023-03-30T05:21:43.227Z,59.23
2023-03-30T05:24:55.304Z,59.39
2023-03-30T05:28:17.246Z,59.33
2023-03-30T05:31:32.705Z,59.48
2023-03-30T05:34:42.141Z,59.48
2023-03-30T05:38:04.438Z,59.50
2023-03-30T05:41:28.165Z,59.46
2023-03-30T05:44:49.432Z,59.48
2023-03-30T05:48:11.249Z,59.57
2023-03-30T05:51:40.475Z,59.45
2023-03-30T05:54:57.785Z,59.44
2023-03-30T05:58:19.972Z,59.42
2023-03-30T06:01:32.309Z,59.40
2023-03-30T06:04:35.523Z,59.37
2023-03-30T06:07:39.570Z,59.38
2023-03-30T06:10:57.171Z,59.30
2023-03-30T06:14:01.645Z,59.31
2023-03-30T06:17:05.392Z,59.25
2023-03-30T06:20:12.531Z,59.23
2023-03-30T06:23:17.733Z,59.29
2023-03-30T06:26:21.165Z,59.29
2023-03-30T06:29:24.767Z,59.26
2023-03-30T06:32:28.389Z,59.37
2023-03-30T06:35:31.931Z,59.43
2023-03-30T06:38:38.883Z,59.33
2023-03-30T06:41:42.751Z,59.32
2023-03-30T06:44:59.528Z,59.23
2023-03-30T06:48:03.272Z,59.13
2023-03-30T06:51:08.853Z,59.12
2023-03-30T06:54:12.608Z,59.15
2023-03-30T06:57:21.369Z,59.16
2023-03-30T07:00:24.588Z,59.24
2023-03-30T07:04:07.451Z,59.17
2023-03-30T07:07:32.334Z,59.15
2023-03-30T07:10:35.835Z,59.18
2023-03-30T07:13:40.136Z,59.24
2023-03-30T07:16:43.515Z,59.38
2023-03-30T07:19:46.792Z,59.40
2023-03-30T07:22:50.048Z,59.45
2023-03-30T07:25:53.619Z,59.49
2023-03-30T07:29:01.481Z,59.46
2023-03-30T07:32:05.049Z,59.45
2023-03-30T07:35:09.257Z,59.39
2023-03-30T07:38:14.311Z,59.35
2023-03-30T07:41:21.252Z,59.29
2023-03-30T07:44:29.457Z,59.20
2023-03-30T07:47:33.379Z,59.08
2023-03-30T07:50:36.684Z,59.01
2023-03-30T07:53:40.910Z,58.72
2023-03-30T07:56:52.876Z,58.37
2023-03-30T07:59:56.898Z,58.08
2023-03-30T08:03:34.299Z,57.91
2023-03-30T08:06:38.051Z,57.57
2023-03-30T08:09:41.336Z,57.35
2023-03-30T08:12:44.447Z,57.21
2023-03-30T08:15:47.881Z,57.02
2023-03-30T08:18:54.952Z,56.91
2023-03-30T08:21:58.202Z,56.82
2023-03-30T08:25:01.309Z,56.86
2023-03-30T08:28:06.076Z,56.79
2023-03-30T08:31:10.963Z,56.75
2023-03-30T08:34:15.630Z,56.73
2023-03-30T08:37:19.459Z,56.64
2023-03-30T08:40:23.402Z,56.53
2023-03-30T08:43:49.711Z,56.54
2023-03-30T08:46:54.287Z,56.66
2023-03-30T08:50:09.576Z,56.64
2023-03-30T08:53:12.967Z,56.49
2023-03-30T08:56:23.946Z,56.30
2023-03-30T08:59:56.535Z,56.13
2023-03-30T09:03:06.289Z,56.07
2023-03-30T09:06:44.852Z,56.09
2023-03-30T09:09:51.885Z,55.85
2023-03-30T09:12:59.987Z,55.62
2023-03-30T09:16:09.706Z,55.31
2023-03-30T09:19:22.724Z,55.14
2023-03-30T09:22:33.312Z,54.98
2023-03-30T09:25:44.897Z,54.81
2023-03-30T09:28:53.510Z,54.67
2023-03-30T09:32:25.766Z,54.32
2023-03-30T09:36:07.747Z,54.02
2023-03-30T09:39:19.722Z,53.51
2023-03-30T09:42:50.970Z,53.28
2023-03-30T09:45:56.912Z,53.08
2023-03-30T09:49:14.504Z,52.55
2023-03-30T09:52:24.266Z,52.05
2023-03-30T09:55:29.838Z,51.69
2023-03-30T09:58:34.648Z,51.71
2023-03-30T10:01:38.675Z,51.64
2023-03-30T10:04:53.842Z,51.83
2023-03-30T10:08:00.132Z,52.27
2023-03-30T10:11:06.224Z,51.96
2023-03-30T10:14:23.813Z,52.00
2023-03-30T10:17:27.521Z,52.13
2023-03-30T10:20:39.447Z,52.34
2023-03-30T10:23:58.858Z,52.61
2023-03-30T10:27:13.490Z,52.80
2023-03-30T10:30:25.007Z,52.90
2023-03-30T10:33:30.509Z,53.05
2023-03-30T10:36:39.447Z,53.12
2023-03-30T10:39:47.154Z,53.08
2023-03-30T10:42:55.688Z,52.63
2023-03-30T10:46:18.833Z,52.30
2023-03-30T10:49:42.339Z,51.85
2023-03-30T10:53:06.869Z,51.31
2023-03-30T10:56:15.829Z,51.16
2023-03-30T10:59:28.291Z,50.62
2023-03-30T11:03:02.319Z,50.16
2023-03-30T11:06:22.077Z,49.87
2023-03-30T11:09:32.274Z,49.41
2023-03-30T11:12:41.652Z,48.72
2023-03-30T11:15:57.408Z,48.24
2023-03-30T11:19:07.242Z,48.14
2023-03-30T11:22:38.823Z,48.32
2023-03-30T11:26:08.650Z,48.51
2023-03-30T11:29:24.533Z,48.69
2023-03-30T11:32:37.026Z,49.15
2023-03-30T11:35:51.173Z,49.59
2023-03-30T11:39:29.097Z,50.04
2023-03-30T11:42:36.555Z,50.45
2023-03-30T11:46:04.104Z,51.08
2023-03-30T11:56:22.613Z,51.99
2023-03-30T11:59:35.211Z,52.22
2023-03-30T12:02:44.436Z,52.50
2023-03-30T12:06:00.461Z,52.66
2023-03-30T12:09:24.988Z,52.81
2023-03-30T12:12:36.423Z,52.93
2023-03-30T12:15:51.380Z,52.96
2023-03-30T12:19:12.059Z,53.06
2023-03-30T12:22:20.946Z,53.28
2023-03-30T12:25:35.999Z,53.38
2023-03-30T12:32:18.837Z,53.86
2023-03-30T12:35:49.760Z,54.13
2023-03-30T12:38:58.050Z,54.42
2023-03-30T12:42:07.138Z,54.79
2023-03-30T12:45:13.146Z,55.02
2023-03-30T12:48:43.046Z,55.38
2023-03-30T12:51:49.636Z,55.60
2023-03-30T12:55:11.371Z,55.94
2023-03-30T12:58:46.966Z,56.20
2023-03-30T13:02:30.804Z,56.24
2023-03-30T13:05:38.936Z,56.42
2023-03-30T13:08:42.835Z,56.49
2023-03-30T13:12:07.964Z,56.69
2023-03-30T13:15:17.164Z,56.71
2023-03-30T13:18:29.216Z,56.85
2023-03-30T13:21:47.796Z,56.96
2023-03-30T13:24:58.104Z,57.05
2023-03-30T13:28:44.642Z,57.11
2023-03-30T13:31:59.259Z,57.22
2023-03-30T13:35:09.929Z,57.45
2023-03-30T13:38:31.568Z,57.57
2023-03-30T13:41:46.658Z,57.84
2023-03-30T13:45:16.948Z,57.95
2023-03-30T13:48:47.108Z,58.23
2023-03-30T13:51:51.822Z,58.50
2023-03-30T13:54:55.151Z,58.63
2023-03-30T13:58:16.256Z,58.78
2023-03-30T14:01:22.621Z,58.97
2023-03-30T14:04:34.427Z,59.06
2023-03-30T14:07:43.355Z,59.04
2023-03-30T14:10:51.811Z,59.13
2023-03-30T14:13:55.768Z,59.20
2023-03-30T14:17:01.755Z,59.19
2023-03-30T14:20:21.238Z,59.26
2023-03-30T14:23:38.756Z,59.11
2023-03-30T14:26:42.064Z,59.19
2023-03-30T14:29:49.652Z,59.11
2023-03-30T14:33:06.187Z,59.06
2023-03-30T14:36:12.636Z,59.09
2023-03-30T14:39:18.848Z,59.17
2023-03-30T14:42:31.123Z,59.21
2023-03-30T14:45:34.498Z,59.36
2023-03-30T14:48:41.910Z,59.48
2023-03-30T14:51:48.821Z,59.59
2023-03-30T14:55:02.522Z,60.00
2023-03-30T14:58:15.143Z,60.27
2023-03-30T15:01:25.964Z,60.88
2023-03-30T15:04:34.208Z,61.34
2023-03-30T15:07:37.556Z,62.08
2023-03-30T15:10:52.046Z,62.66
2023-03-30T15:14:04.069Z,62.95
2023-03-30T15:17:20.905Z,63.32
2023-03-30T15:20:29.840Z,63.49
2023-03-30T15:23:41.965Z,63.84
2023-03-30T15:26:49.014Z,64.08
2023-03-30T15:29:52.311Z,64.72
2023-03-30T15:32:56.950Z,65.17
2023-03-30T15:36:08.022Z,65.48
2023-03-30T15:39:24.008Z,65.34
2023-03-30T15:42:33.576Z,65.88
2023-03-30T15:45:37.237Z,66.33
2023-03-30T15:48:47.395Z,66.83
2023-03-30T15:51:53.747Z,67.09
2023-03-30T15:54:57.081Z,67.38
2023-03-30T15:58:00.434Z,67.51
2023-03-30T16:01:06.832Z,68.00
2023-03-30T16:04:14.389Z,68.37
2023-03-30T16:07:20.878Z,69.02
2023-03-30T16:10:32.387Z,69.48
2023-03-30T16:13:44.324Z,69.47
2023-03-30T16:16:48.582Z,69.52
2023-03-30T16:19:51.930Z,69.81
2023-03-30T16:22:59.489Z,70.28
2023-03-30T16:26:03.324Z,70.69
2023-03-30T16:29:20.093Z,70.92
2023-03-30T16:32:23.382Z,70.85
2023-03-30T16:35:29.098Z,70.96
2023-03-30T16:38:32.282Z,71.33
2023-03-30T16:41:35.941Z,71.33
2023-03-30T16:44:39.126Z,71.47
2023-03-30T16:47:42.367Z,71.67
2023-03-30T16:50:50.981Z,72.12
2023-03-30T16:53:54.186Z,72.10
2023-03-30T16:56:57.505Z,72.40
2023-03-30T17:00:03.641Z,72.56
2023-03-30T17:03:07.457Z,72.71
2023-03-30T17:06:10.706Z,72.84
2023-03-30T17:09:17.180Z,72.94
2023-03-30T17:12:20.810Z,72.94
2023-03-30T17:15:25.038Z,73.19
2023-03-30T17:18:29.163Z,73.38
2023-03-30T17:21:32.569Z,73.54
2023-03-30T17:24:36.069Z,73.61
2023-03-30T17:27:40.065Z,73.60
2023-03-30T17:30:43.336Z,73.57
2023-03-30T17:33:47.959Z,73.61
2023-03-30T17:36:51.192Z,73.61
2023-03-30T17:39:54.328Z,73.92
2023-03-30T17:42:57.551Z,74.03
2023-03-30T17:46:01.591Z,73.98
2023-03-30T17:49:04.701Z,74.12
2023-03-30T17:52:07.793Z,74.29
2023-03-30T17:55:10.879Z,74.17
2023-03-30T17:58:24.391Z,74.27
2023-03-30T18:01:27.703Z,74.36
2023-03-30T18:04:30.966Z,74.42
2023-03-30T18:07:34.002Z,74.45
2023-03-30T18:10:39.208Z,74.23
2023-03-30T18:13:42.288Z,74.39
2023-03-30T18:16:45.993Z,74.47
2023-03-30T18:19:49.155Z,74.53
2023-03-30T18:22:52.560Z,74.45
2023-03-30T18:25:55.649Z,74.36
2023-03-30T18:28:58.964Z,74.41
2023-03-30T18:32:03.836Z,74.50
2023-03-30T18:35:07.762Z,74.56
2023-03-30T18:38:12.691Z,74.57
2023-03-30T18:41:15.988Z,74.70
2023-03-30T18:44:19.162Z,74.49
2023-03-30T18:47:23.698Z,74.65
2023-03-30T18:50:29.630Z,74.75
2023-03-30T18:53:33.013Z,74.76
2023-03-30T18:56:37.894Z,74.77
2023-03-30T18:59:41.209Z,74.82
2023-03-30T19:02:44.900Z,74.85
2023-03-30T19:05:49.443Z,74.71
2023-03-30T19:08:52.630Z,74.72
2023-03-30T19:11:56.372Z,74.77
2023-03-30T19:14:59.476Z,74.85
2023-03-30T19:18:03.899Z,74.68
2023-03-30T19:21:07.264Z,74.70
2023-03-30T19:24:12.631Z,74.62
2023-03-30T19:27:15.844Z,74.74
2023-03-30T19:30:21.175Z,74.83
2023-03-30T19:33:24.353Z,74.80
2023-03-30T19:36:27.508Z,74.86
2023-03-30T19:39:31.007Z,75.05
2023-03-30T19:42:35.418Z,75.14
2023-03-30T19:45:39.105Z,75.17
2023-03-30T19:48:42.229Z,75.29
2023-03-30T19:51:45.580Z,75.39
2023-03-30T19:54:48.923Z,75.66
2023-03-30T19:57:52.076Z,75.57
2023-03-30T20:00:55.562Z,75.60
2023-03-30T20:03:59.663Z,75.65
2023-03-30T20:07:02.978Z,75.69
2023-03-30T20:10:08.923Z,75.95
2023-03-30T20:13:12.175Z,76.00
2023-03-30T20:16:22.974Z,75.95
2023-03-30T20:19:29.809Z,75.99
2023-03-30T20:22:35.522Z,75.98
2023-03-30T20:25:40.484Z,75.96
2023-03-30T20:28:43.822Z,76.01
2023-03-30T20:31:46.978Z,75.95
2023-03-30T20:34:50.135Z,76.12
2023-03-30T20:37:53.212Z,76.03
2023-03-30T20:40:58.136Z,76.09
2023-03-30T20:44:03.237Z,75.98
2023-03-30T20:47:08.881Z,76.07
2023-03-30T20:50:12.281Z,76.09
2023-03-30T20:53:17.026Z,76.10
2023-03-30T20:56:20.141Z,76.12
2023-03-30T20:59:23.541Z,76.18
2023-03-30T21:02:27.391Z,76.21
2023-03-30T21:05:31.572Z,76.18
2023-03-30T21:08:35.628Z,76.14
2023-03-30T21:11:39.480Z,76.10
2023-03-30T21:14:42.535Z,75.98
2023-03-30T21:17:45.642Z,75.99
2023-03-30T21:20:49.010Z,75.98
2023-03-30T21:23:52.126Z,76.01
2023-03-30T21:26:55.520Z,76.01
2023-03-30T21:29:58.775Z,75.94
2023-03-30T21:33:02.490Z,75.98
2023-03-30T21:36:06.491Z,75.98
2023-03-30T21:39:09.970Z,75.98
2023-03-30T21:42:13.133Z,76.04
2023-03-30T21:45:17.870Z,75.92
2023-03-30T21:48:21.370Z,75.90
2023-03-30T21:51:29.764Z,75.90
2023-03-30T21:54:32.936Z,75.90
2023-03-30T21:57:36.049Z,75.84
2023-03-30T22:00:39.460Z,75.90
2023-03-30T22:03:43.053Z,75.86
2023-03-30T22:06:46.678Z,75.89
2023-03-30T22:09:49.719Z,75.80
2023-03-30T22:12:52.845Z,75.61
2023-03-30T22:16:18.795Z,75.45
2023-03-30T22:19:29.040Z,75.54
2023-03-30T22:22:32.163Z,75.52
2023-03-30T22:25:35.536Z,75.51
2023-03-30T22:28:39.334Z,75.53
2023-03-30T22:31:42.437Z,75.45
2023-03-30T22:34:45.619Z,75.53
2023-03-30T22:37:48.688Z,75.54
2023-03-30T22:40:51.746Z,75.53
2023-03-30T22:43:56.932Z,75.47
2023-03-30T22:47:00.325Z,75.52
2023-03-30T22:50:04.138Z,75.49
2023-03-30T22:53:07.519Z,75.42
2023-03-30T22:56:11.803Z,75.34
2023-03-30T22:59:15.466Z,75.36
2023-03-30T23:02:18.736Z,75.29
2023-03-30T23:05:21.847Z,75.23
2023-03-30T23:08:25.171Z,75.19
2023-03-30T23:11:29.124Z,75.14
2023-03-30T23:14:32.356Z,75.05
2023-03-30T23:17:35.857Z,75.11
2023-03-30T23:20:39.123Z,75.15
2023-03-30T23:23:42.403Z,75.16
2023-03-30T23:26:45.542Z,75.21
2023-03-30T23:29:49.697Z,75.18
2023-03-30T23:32:52.865Z,75.20
2023-03-30T23:35:56.037Z,75.25
2023-03-30T23:38:59.096Z,75.26
2023-03-30T23:42:02.248Z,75.23
2023-03-30T23:45:06.234Z,75.26
2023-03-30T23:48:09.436Z,75.30
2023-03-30T23:51:12.539Z,75.37
2023-03-30T23:54:16.212Z,75.38
2023-03-30T23:57:20.459Z,75.38
